Time;durP1;ratioP1;P1;durP2;ratioP2;P2;SDS_P1;SDS_P2;PMS_P1;PMS_P2;Temp;Humidity;BMP_temperature;BMP_pressure;BME280_temperature;BME280_humidity;BME280_pressure;Samples;Min_cycle;Max_cycle;Signal;HPM_P1;HPM_P2
2020/06/04 00:19:36;;;;;;;1.98;1.88;;;;;;;20.65;46.47;98814.95;;;;-52
2020/06/04 00:46:41;;;;;;;1.98;1.88;;;;;;;20.62;46.40;98791.02;;;;-52
2020/06/04 00:49:18;;;;;;;2.01;1.91;;;;;;;20.62;46.40;98788.77;;;;-52
2020/06/04 00:52:18;;;;;;;1.91;1.81;;;;;;;20.62;46.40;98782.04;;;;-51
2020/06/04 00:55:32;;;;;;;2.16;1.97;;;;;;;20.63;46.40;98780.04;;;;-51
2020/06/04 00:58:36;;;;;;;1.96;1.86;;;;;;;20.62;46.39;98779.02;;;;-52
2020/06/04 01:04:13;;;;;;;2.00;1.90;;;;;;;20.61;46.38;98769.81;;;;-52
2020/06/04 01:25:12;;;;;;;2.00;1.90;;;;;;;20.60;46.40;98774.40;;;;-51
2020/06/04 01:28:26;;;;;;;2.10;1.97;;;;;;;20.60;46.40;98767.26;;;;-52
2020/06/04 01:35:03;;;;;;;2.03;1.85;;;;;;;20.58;46.39;98756.58;;;;-51
2020/06/04 01:41:35;;;;;;;2.15;1.95;;;;;;;20.58;46.39;98748.03;;;;-51
2020/06/04 02:17:35;;;;;;;2.05;1.92;;;;;;;20.56;46.43;98708.59;;;;-51
2020/06/04 02:34:25;;;;;;;1.89;1.79;;;;;;;20.55;46.43;98694.84;;;;-51
2020/06/04 02:41:23;;;;;;;2.01;1.81;;;;;;;20.55;46.45;98693.07;;;;-52
2020/06/04 03:03:32;;;;;;;2.03;1.91;;;;;;;20.53;46.45;98686.95;;;;-52
2020/06/04 03:25:35;;;;;;;2.06;1.96;;;;;;;20.51;46.47;98671.24;;;;-52
2020/06/04 03:41:20;;;;;;;1.88;1.78;;;;;;;20.50;46.48;98674.02;;;;-52
2020/06/04 03:44:32;;;;;;;2.21;2.05;;;;;;;20.50;46.54;98674.17;;;;-52
2020/06/04 04:10:03;;;;;;;1.99;1.89;;;;;;;20.48;46.59;98653.36;;;;-52
2020/06/04 04:12:15;;;;;;;1.99;1.89;;;;;;;20.50;46.61;98656.22;;;;-51
2020/06/04 04:18:57;;;;;;;2.08;1.91;;;;;;;20.49;46.64;98648.32;;;;-52
2020/06/04 04:22:39;;;;;;;1.99;1.89;;;;;;;20.49;46.63;98655.97;;;;-52
2020/06/04 04:28:22;;;;;;;1.90;1.80;;;;;;;20.48;46.67;98648.16;;;;-52
2020/06/04 04:40:24;;;;;;;1.90;1.80;;;;;;;20.49;46.70;98642.21;;;;-52
2020/06/04 04:43:18;;;;;;;2.02;1.87;;;;;;;20.48;46.72;98641.80;;;;-51
2020/06/04 04:51:03;;;;;;;2.02;1.92;;;;;;;20.49;46.74;98632.30;;;;-52
2020/06/04 04:54:21;;;;;;;2.04;1.91;;;;;;;20.49;46.71;98626.59;;;;-52
2020/06/04 04:57:27;;;;;;;2.09;1.93;;;;;;;20.49;46.69;98626.02;;;;-52
2020/06/04 05:06:30;;;;;;;2.01;1.85;;;;;;;20.48;46.69;98617.22;;;;-52
2020/06/04 05:13:19;;;;;;;1.90;1.80;;;;;;;20.48;46.76;98616.95;;;;-52
2020/06/04 05:16:19;;;;;;;1.90;1.80;;;;;;;20.48;46.73;98624.43;;;;-52
2020/06/04 05:26:24;;;;;;;1.90;1.80;;;;;;;20.48;46.80;98607.59;;;;-52
2020/06/04 05:29:15;;;;;;;1.89;1.79;;;;;;;20.47;46.79;98601.70;;;;-51
2020/06/04 05:32:13;;;;;;;1.94;1.79;;;;;;;20.48;46.80;98599.69;;;;-52
2020/06/04 05:35:13;;;;;;;1.94;1.84;;;;;;;20.48;46.78;98599.88;;;;-52
2020/06/04 05:38:13;;;;;;;1.90;1.80;;;;;;;20.48;46.81;98603.90;;;;-51
2020/06/04 05:41:13;;;;;;;2.10;1.99;;;;;;;20.49;46.80;98602.21;;;;-52
2020/06/04 05:44:13;;;;;;;2.02;1.90;;;;;;;20.51;47.59;98602.83;;;;-52
2020/06/04 05:47:13;;;;;;;2.57;1.91;;;;;;;20.52;47.65;98605.11;;;;-51
2020/06/04 05:50:13;;;;;;;3.05;1.98;;;;;;;20.52;47.68;98600.91;;;;-51
2020/06/04 05:53:13;;;;;;;2.04;1.87;;;;;;;20.53;47.51;98601.94;;;;-51
2020/06/04 05:56:13;;;;;;;1.97;1.80;;;;;;;20.53;47.42;98602.28;;;;-51
2020/06/04 05:59:13;;;;;;;1.93;1.70;;;;;;;20.54;47.44;98607.72;;;;-51
2020/06/04 06:02:13;;;;;;;2.34;1.87;;;;;;;20.55;47.37;98607.04;;;;-51
2020/06/04 06:05:13;;;;;;;2.02;1.92;;;;;;;20.55;47.47;98603.71;;;;-51
2020/06/04 06:08:13;;;;;;;2.06;1.81;;;;;;;20.54;47.46;98601.45;;;;-51
2020/06/04 06:11:13;;;;;;;1.92;1.82;;;;;;;20.55;47.42;98606.06;;;;-50
2020/06/04 06:14:13;;;;;;;3.74;1.71;;;;;;;20.55;47.44;98600.67;;;;-51
2020/06/04 06:17:21;;;;;;;2.12;1.85;;;;;;;20.55;47.46;98600.77;;;;-51
2020/06/04 06:20:57;;;;;;;2.24;1.70;;;;;;;20.56;47.44;98600.52;;;;-51
2020/06/04 06:23:13;;;;;;;1.77;1.67;;;;;;;20.55;47.39;98601.53;;;;-51
2020/06/04 06:26:13;;;;;;;3.83;1.87;;;;;;;20.55;47.44;98603.04;;;;-51
2020/06/04 06:29:13;;;;;;;1.90;1.71;;;;;;;20.56;47.37;98602.88;;;;-51
2020/06/04 06:32:13;;;;;;;1.82;1.72;;;;;;;20.56;47.33;98601.02;;;;-51
2020/06/04 06:35:13;;;;;;;1.84;1.70;;;;;;;20.56;47.32;98601.60;;;;-51
2020/06/04 06:38:13;;;;;;;2.05;1.88;;;;;;;20.56;47.29;98601.94;;;;-51
2020/06/04 06:41:13;;;;;;;1.93;1.71;;;;;;;20.57;47.25;98604.72;;;;-51
2020/06/04 06:44:13;;;;;;;2.85;1.66;;;;;;;20.57;47.26;98609.34;;;;-51
2020/06/04 06:47:13;;;;;;;1.88;1.78;;;;;;;20.57;47.30;98605.58;;;;-50
2020/06/04 06:50:13;;;;;;;2.13;1.68;;;;;;;20.57;47.26;98600.52;;;;-50
2020/06/04 06:53:12;;;;;;;1.78;1.68;;;;;;;20.57;47.25;98600.11;;;;-51
2020/06/04 06:56:13;;;;;;;2.46;1.83;;;;;;;20.58;47.24;98597.02;;;;-51
2020/06/04 06:59:13;;;;;;;1.76;1.66;;;;;;;20.58;47.27;98594.09;;;;-50
2020/06/04 07:02:13;;;;;;;1.87;1.77;;;;;;;20.58;47.27;98590.55;;;;-51
2020/06/04 07:05:13;;;;;;;1.95;1.83;;;;;;;20.58;47.25;98584.80;;;;-51
2020/06/04 07:08:13;;;;;;;2.05;1.80;;;;;;;20.59;47.28;98582.79;;;;-51
2020/06/04 07:11:19;;;;;;;1.84;1.71;;;;;;;20.60;47.24;98581.10;;;;-51
2020/06/04 07:14:13;;;;;;;2.40;1.70;;;;;;;20.60;47.48;98585.30;;;;-50
2020/06/04 07:17:13;;;;;;;2.89;1.94;;;;;;;20.61;47.67;98581.13;;;;-50
2020/06/04 07:20:13;;;;;;;2.19;1.70;;;;;;;20.62;47.69;98579.02;;;;-51
2020/06/04 07:23:13;;;;;;;1.81;1.71;;;;;;;20.63;47.72;98574.76;;;;-50
2020/06/04 07:26:13;;;;;;;1.70;1.60;;;;;;;20.64;47.76;98574.34;;;;-50
2020/06/04 07:29:13;;;;;;;2.43;1.93;;;;;;;20.66;48.27;98576.89;;;;-51
2020/06/04 07:32:13;;;;;;;3.40;1.93;;;;;;;20.68;48.09;98579.27;;;;-50
2020/06/04 07:35:17;;;;;;;5.43;2.05;;;;;;;20.68;48.15;98573.88;;;;-50
2020/06/04 07:41:13;;;;;;;4.01;1.89;;;;;;;20.70;48.25;98569.61;;;;-57
2020/06/04 07:44:13;;;;;;;3.03;1.71;;;;;;;20.72;48.07;98562.44;;;;-56
2020/06/04 07:47:13;;;;;;;4.75;1.69;;;;;;;20.72;48.00;98563.44;;;;-56
2020/06/04 07:50:13;;;;;;;5.93;1.80;;;;;;;20.72;48.05;98567.97;;;;-57
2020/06/04 07:53:13;;;;;;;2.10;1.70;;;;;;;20.72;47.97;98574.41;;;;-55
2020/06/04 07:56:14;;;;;;;3.39;1.71;;;;;;;20.71;47.96;98573.92;;;;-56
2020/06/04 07:59:13;;;;;;;2.41;1.64;;;;;;;20.71;47.86;98576.94;;;;-56
2020/06/04 08:02:21;;;;;;;3.50;1.61;;;;;;;20.71;47.79;98575.92;;;;-57
2020/06/04 08:05:16;;;;;;;1.72;1.62;;;;;;;20.71;47.75;98576.67;;;;-56
2020/06/04 08:08:15;;;;;;;1.90;1.56;;;;;;;20.70;47.73;98575.41;;;;-56
2020/06/04 08:11:14;;;;;;;3.29;1.81;;;;;;;20.71;47.67;98574.09;;;;-56
2020/06/04 08:19:17;;;;;;;4.38;1.80;;;;;;;20.69;47.57;98574.90;;;;-56
2020/06/04 08:22:18;;;;;;;3.10;1.62;;;;;;;20.68;47.57;98571.88;;;;-56
2020/06/04 08:34:17;;;;;;;2.68;1.70;;;;;;;20.69;47.46;98578.17;;;;-57
2020/06/04 08:37:34;;;;;;;2.63;1.50;;;;;;;20.68;47.42;98577.99;;;;-56
2020/06/04 08:40:24;;;;;;;2.85;1.64;;;;;;;20.69;47.37;98579.34;;;;-57
2020/06/04 08:43:21;;;;;;;1.93;1.53;;;;;;;20.69;47.38;98580.28;;;;-56
2020/06/04 08:46:21;;;;;;;1.87;1.68;;;;;;;20.68;47.33;98577.57;;;;-56
2020/06/04 08:49:21;;;;;;;2.41;1.60;;;;;;;20.67;47.37;98574.62;;;;-56
2020/06/04 09:01:40;;;;;;;1.72;1.61;;;;;;;20.68;47.30;98571.88;;;;-57
2020/06/04 09:04:18;;;;;;;2.51;1.65;;;;;;;20.67;47.32;98572.36;;;;-57
2020/06/04 09:07:26;;;;;;;1.84;1.70;;;;;;;20.68;47.32;98565.34;;;;-56
2020/06/04 09:10:45;;;;;;;5.46;1.80;;;;;;;20.70;47.55;98569.13;;;;-51
2020/06/04 09:13:13;;;;;;;4.50;1.72;;;;;;;20.71;47.96;98572.06;;;;-46
2020/06/04 09:16:13;;;;;;;5.40;1.98;;;;;;;20.74;48.15;98569.16;;;;-50
2020/06/04 09:19:13;;;;;;;3.41;1.72;;;;;;;20.75;48.24;98561.53;;;;-50
2020/06/04 09:22:13;;;;;;;4.37;1.73;;;;;;;20.77;48.29;98563.31;;;;-54
2020/06/04 09:25:13;;;;;;;6.43;2.01;;;;;;;20.78;48.40;98561.39;;;;-48
2020/06/04 09:28:13;;;;;;;4.82;1.82;;;;;;;20.81;48.40;98560.93;;;;-51
2020/06/04 09:31:13;;;;;;;4.74;1.87;;;;;;;20.82;48.38;98556.81;;;;-55
2020/06/04 09:34:13;;;;;;;4.99;1.83;;;;;;;20.82;48.45;98554.32;;;;-53
2020/06/04 09:37:22;;;;;;;5.47;1.75;;;;;;;20.83;48.71;98548.03;;;;-53
2020/06/04 09:43:12;;;;;;;5.11;1.88;;;;;;;20.86;48.54;98549.16;;;;-49
2020/06/04 09:46:20;;;;;;;3.63;1.75;;;;;;;20.87;48.46;98546.54;;;;-47
2020/06/04 09:49:26;;;;;;;1.81;1.66;;;;;;;20.88;48.53;98550.66;;;;-51
2020/06/04 09:56:14;;;;;;;4.41;1.96;;;;;;;20.88;48.50;98552.25;;;;-54
2020/06/04 09:59:13;;;;;;;5.88;2.03;;;;;;;20.89;48.41;98550.92;;;;-54
2020/06/04 10:02:15;;;;;;;3.97;2.03;;;;;;;20.90;48.32;98554.72;;;;-52
2020/06/04 10:05:14;;;;;;;4.55;1.87;;;;;;;20.90;48.39;98548.33;;;;-53
2020/06/04 10:13:13;;;;;;;4.59;2.05;;;;;;;20.89;48.14;98537.83;;;;-55
2020/06/04 10:16:13;;;;;;;3.86;1.87;;;;;;;20.89;48.17;98533.48;;;;-55
2020/06/04 10:19:13;;;;;;;2.99;1.68;;;;;;;20.88;48.15;98534.07;;;;-55
2020/06/04 10:22:13;;;;;;;2.92;1.77;;;;;;;20.87;48.09;98531.61;;;;-55
2020/06/04 10:25:13;;;;;;;3.23;1.60;;;;;;;20.86;48.06;98531.47;;;;-56
2020/06/04 10:28:13;;;;;;;2.67;1.74;;;;;;;20.87;47.97;98527.52;;;;-55
2020/06/04 10:31:13;;;;;;;3.96;1.77;;;;;;;20.87;47.94;98522.32;;;;-55
2020/06/04 10:34:13;;;;;;;3.20;1.71;;;;;;;20.86;47.91;98525.98;;;;-55
2020/06/04 10:37:13;;;;;;;3.01;1.75;;;;;;;20.85;47.90;98529.11;;;;-55
2020/06/04 10:40:13;;;;;;;2.68;1.73;;;;;;;20.86;47.85;98522.46;;;;-55
2020/06/04 10:43:13;;;;;;;3.08;1.77;;;;;;;20.85;47.82;98527.48;;;;-55
2020/06/04 10:46:30;;;;;;;4.59;1.61;;;;;;;20.85;47.79;98523.29;;;;-55
2020/06/04 10:52:17;;;;;;;2.27;1.70;;;;;;;20.84;47.65;98514.67;;;;-56
2020/06/04 10:55:24;;;;;;;2.46;1.73;;;;;;;20.83;47.69;98511.31;;;;-55
2020/06/04 10:58:35;;;;;;;2.32;1.70;;;;;;;20.83;47.68;98511.81;;;;-55
2020/06/04 11:02:06;;;;;;;2.23;1.66;;;;;;;20.83;47.61;98514.23;;;;-55
2020/06/04 11:05:26;;;;;;;2.99;1.67;;;;;;;20.82;47.64;98511.30;;;;-55
2020/06/04 11:11:33;;;;;;;1.80;1.69;;;;;;;20.82;47.56;98518.92;;;;-55
2020/06/04 11:14:16;;;;;;;3.00;1.60;;;;;;;20.81;47.54;98518.25;;;;-55
2020/06/04 11:18:25;;;;;;;2.28;1.60;;;;;;;20.82;47.56;98511.86;;;;-55
2020/06/04 11:21:19;;;;;;;3.31;1.64;;;;;;;20.80;47.50;98503.98;;;;-56
2020/06/04 11:24:55;;;;;;;3.15;1.73;;;;;;;20.82;47.69;98502.73;;;;-53
2020/06/04 11:27:16;;;;;;;3.86;1.77;;;;;;;20.82;47.79;98498.13;;;;-55
2020/06/04 11:34:15;;;;;;;3.25;1.81;;;;;;;20.86;47.89;98489.24;;;;-52
2020/06/04 11:40:21;;;;;;;5.09;1.77;;;;;;;20.87;48.09;98484.13;;;;-50
2020/06/04 11:43:33;;;;;;;6.29;1.91;;;;;;;20.87;48.15;98478.93;;;;-51
2020/06/04 11:46:28;;;;;;;4.33;1.81;;;;;;;20.88;48.10;98477.17;;;;-52
2020/06/04 11:49:28;;;;;;;7.78;1.80;;;;;;;20.88;48.15;98474.66;;;;-52
2020/06/04 11:52:13;;;;;;;7.95;2.15;;;;;;;20.88;48.11;98479.28;;;;-50
2020/06/04 11:55:33;;;;;;;2.89;1.70;;;;;;;20.89;48.15;98477.35;;;;-51
2020/06/04 11:58:17;;;;;;;3.43;1.78;;;;;;;20.89;48.10;98482.47;;;;-52
2020/06/04 12:05:23;;;;;;;3.90;1.66;;;;;;;20.90;48.09;98467.89;;;;-53
2020/06/04 12:08:48;;;;;;;2.47;1.65;;;;;;;20.91;48.11;98476.19;;;;-55
2020/06/04 12:14:22;;;;;;;11.23;1.88;;;;;;;20.95;48.11;98477.47;;;;-53
2020/06/04 12:17:22;;;;;;;4.83;1.81;;;;;;;20.98;48.10;98475.83;;;;-54
2020/06/04 12:20:13;;;;;;;5.84;1.75;;;;;;;20.97;48.05;98470.02;;;;-51
2020/06/04 12:23:14;;;;;;;3.28;1.89;;;;;;;20.97;48.07;98474.30;;;;-51
2020/06/04 12:26:26;;;;;;;6.58;1.81;;;;;;;20.96;48.19;98480.42;;;;-49
2020/06/04 12:29:17;;;;;;;6.73;1.95;;;;;;;20.97;48.15;98481.44;;;;-50
2020/06/04 12:32:20;;;;;;;6.03;1.80;;;;;;;20.97;48.18;98472.63;;;;-50
2020/06/04 12:38:44;;;;;;;6.81;1.88;;;;;;;20.95;48.01;98467.00;;;;-52
2020/06/04 12:45:23;;;;;;;5.77;1.90;;;;;;;20.97;48.20;98453.84;;;;-51
2020/06/04 13:03:16;;;;;;;4.77;1.85;;;;;;;20.99;48.29;98437.49;;;;-55
2020/06/04 13:06:22;;;;;;;4.85;1.86;;;;;;;21.01;48.60;98442.45;;;;-52
2020/06/04 13:12:36;;;;;;;4.51;1.91;;;;;;;21.03;48.40;98456.14;;;;-47
2020/06/04 13:15:35;;;;;;;2.63;1.80;;;;;;;21.06;48.49;98452.69;;;;-52
2020/06/04 13:23:19;;;;;;;3.41;1.73;;;;;;;21.07;48.64;98453.53;;;;-52
2020/06/04 13:26:27;;;;;;;3.84;1.89;;;;;;;21.06;48.56;98453.05;;;;-53
2020/06/04 13:29:17;;;;;;;4.41;1.90;;;;;;;21.06;48.65;98460.69;;;;-52
2020/06/04 13:32:31;;;;;;;3.04;1.71;;;;;;;21.08;48.72;98460.25;;;;-47
2020/06/04 13:35:19;;;;;;;4.42;1.65;;;;;;;21.07;48.58;98451.47;;;;-50
2020/06/04 13:38:25;;;;;;;3.81;1.88;;;;;;;21.08;48.59;98448.77;;;;-49
2020/06/04 13:41:37;;;;;;;3.74;1.98;;;;;;;21.07;48.60;98455.16;;;;-50
2020/06/04 13:44:22;;;;;;;2.68;1.77;;;;;;;21.09;48.60;98461.27;;;;-51
2020/06/04 13:47:28;;;;;;;4.51;1.82;;;;;;;21.08;48.67;98449.20;;;;-51
2020/06/04 13:56:01;;;;;;;2.77;1.53;;;;;;;21.09;48.63;98438.78;;;;-54
2020/06/04 14:04:23;;;;;;;4.67;1.71;;;;;;;21.09;48.56;98437.72;;;;-56
2020/06/04 14:18:25;;;;;;;5.38;1.79;;;;;;;21.06;48.55;98446.16;;;;-54
2020/06/04 14:24:26;;;;;;;3.25;1.97;;;;;;;21.05;48.50;98433.89;;;;-54
2020/06/04 14:40:39;;;;;;;4.55;1.95;;;;;;;21.04;48.49;98428.70;;;;-54
2020/06/04 14:50:20;;;;;;;3.15;2.04;;;;;;;21.03;48.59;98429.45;;;;-54
2020/06/04 14:57:14;;;;;;;2.13;1.87;;;;;;;21.02;48.42;98442.28;;;;-54
2020/06/04 15:01:52;;;;;;;3.43;1.89;;;;;;;21.01;48.42;98436.23;;;;-54
2020/06/04 15:08:20;;;;;;;2.69;1.67;;;;;;;20.99;48.34;98418.02;;;;-54
2020/06/04 15:11:13;;;;;;;2.43;1.73;;;;;;;20.99;48.26;98415.84;;;;-54
2020/06/04 15:14:13;;;;;;;3.53;1.79;;;;;;;20.98;48.21;98411.38;;;;-54
2020/06/04 15:17:17;;;;;;;2.63;1.81;;;;;;;20.97;48.21;98410.30;;;;-54
2020/06/04 15:20:13;;;;;;;7.04;1.89;;;;;;;20.97;48.17;98414.66;;;;-54
2020/06/04 15:23:14;;;;;;;2.38;1.80;;;;;;;20.97;48.19;98408.28;;;;-54
2020/06/04 15:26:13;;;;;;;2.05;1.79;;;;;;;20.98;48.17;98423.31;;;;-53
2020/06/04 15:29:13;;;;;;;2.69;1.77;;;;;;;20.97;48.17;98426.83;;;;-54
2020/06/04 15:32:14;;;;;;;5.83;1.80;;;;;;;20.96;48.18;98431.24;;;;-54
2020/06/04 15:35:13;;;;;;;2.63;1.74;;;;;;;20.95;48.21;98436.27;;;;-54
2020/06/04 15:38:14;;;;;;;1.92;1.65;;;;;;;20.95;48.23;98504.83;;;;-54
2020/06/04 15:43:02;;;;;;;1.92;1.76;;;;;;;20.95;48.30;98516.98;;;;-54
2020/06/04 15:51:14;;;;;;;1.90;1.71;;;;;;;20.94;48.27;98445.70;;;;-54
2020/06/04 15:54:14;;;;;;;2.63;1.71;;;;;;;20.93;48.42;98464.47;;;;-59
2020/06/04 15:57:17;;;;;;;2.55;1.79;;;;;;;20.94;48.52;98465.22;;;;-55
2020/06/04 16:03:35;;;;;;;1.70;1.60;;;;;;;20.94;48.54;98475.21;;;;-60
2020/06/04 16:09:28;;;;;;;3.83;1.75;;;;;;;20.98;48.80;98464.08;;;;-51
2020/06/04 16:16:18;;;;;;;4.17;1.87;;;;;;;21.01;48.94;98428.70;;;;-54
2020/06/04 16:19:15;;;;;;;12.14;2.06;;;;;;;21.02;49.33;98436.14;;;;-51
2020/06/04 16:22:13;;;;;;;6.39;2.02;;;;;;;21.03;49.26;98435.67;;;;-52
2020/06/04 16:25:15;;;;;;;5.00;2.03;;;;;;;21.03;49.46;98439.67;;;;-52
2020/06/04 16:31:20;;;;;;;4.89;1.87;;;;;;;21.05;49.27;98436.41;;;;-52
2020/06/04 16:34:27;;;;;;;2.97;1.77;;;;;;;21.04;49.32;98443.39;;;;-57
2020/06/04 16:37:23;;;;;;;4.87;2.00;;;;;;;21.05;49.37;98443.98;;;;-51
2020/06/04 16:45:30;;;;;;;3.38;2.00;;;;;;;21.06;49.30;98466.45;;;;-49
2020/06/04 16:48:20;;;;;;;3.07;1.81;;;;;;;21.06;49.36;98478.53;;;;-51
2020/06/04 16:54:23;;;;;;;5.13;1.94;;;;;;;21.06;49.40;98476.20;;;;-53
2020/06/04 17:00:26;;;;;;;2.97;2.05;;;;;;;21.07;49.31;98488.11;;;;-53
2020/06/04 17:11:23;;;;;;;6.35;1.90;;;;;;;21.10;49.28;98489.47;;;;-53
2020/06/04 17:14:19;;;;;;;3.97;1.90;;;;;;;21.10;49.20;98494.11;;;;-55
2020/06/04 17:20:38;;;;;;;2.77;1.81;;;;;;;21.10;49.27;98500.91;;;;-56
2020/06/04 17:23:23;;;;;;;6.99;1.94;;;;;;;21.11;49.30;98493.94;;;;-51
2020/06/04 17:26:25;;;;;;;2.50;1.83;;;;;;;21.11;49.30;98496.45;;;;-52
2020/06/04 17:29:58;;;;;;;3.39;1.90;;;;;;;21.11;49.43;98497.70;;;;-51
2020/06/04 17:32:33;;;;;;;2.75;1.82;;;;;;;21.10;49.11;98498.89;;;;-52
2020/06/04 17:39:26;;;;;;;2.10;1.87;;;;;;;21.09;49.44;98490.16;;;;-53
2020/06/04 17:51:45;;;;;;;3.51;1.95;;;;;;;21.08;49.05;98509.88;;;;-58
2020/06/04 18:06:31;;;;;;;2.88;1.91;;;;;;;21.05;49.19;98502.98;;;;-58
2020/06/04 18:13:28;;;;;;;4.90;2.05;;;;;;;21.04;49.00;98504.37;;;;-58
2020/06/04 18:19:31;;;;;;;4.74;1.73;;;;;;;21.02;48.94;98506.22;;;;-58
2020/06/04 18:23:00;;;;;;;2.08;1.87;;;;;;;21.02;48.90;98503.70;;;;-58
2020/06/04 18:34:13;;;;;;;1.94;1.75;;;;;;;21.00;48.87;98496.55;;;;-58
2020/06/04 18:37:23;;;;;;;3.04;1.74;;;;;;;21.00;48.75;98501.41;;;;-58
2020/06/04 18:40:20;;;;;;;2.63;1.63;;;;;;;20.98;48.76;98489.07;;;;-59
2020/06/04 18:53:12;;;;;;;1.95;1.71;;;;;;;20.97;48.74;98490.59;;;;-58
2020/06/04 18:56:29;;;;;;;2.99;1.63;;;;;;;20.96;48.68;98493.44;;;;-58
2020/06/04 18:59:31;;;;;;;2.09;1.73;;;;;;;20.95;48.70;98496.28;;;;-59
2020/06/04 19:07:30;;;;;;;2.10;1.59;;;;;;;20.94;48.67;98512.46;;;;-58
2020/06/04 19:25:30;;;;;;;2.46;1.68;;;;;;;20.96;48.73;98565.34;;;;-58
2020/06/04 19:36:40;;;;;;;2.73;1.67;;;;;;;20.94;48.88;98601.56;;;;-57
2020/06/04 19:39:58;;;;;;;2.58;1.67;;;;;;;20.94;48.90;98593.09;;;;-58
2020/06/04 19:45:49;;;;;;;1.75;1.64;;;;;;;20.93;48.95;98602.73;;;;-57
2020/06/04 19:58:51;;;;;;;2.85;1.75;;;;;;;20.93;48.89;98611.12;;;;-55
2020/06/04 20:04:52;;;;;;;1.75;1.65;;;;;;;20.97;49.00;98623.64;;;;-54
2020/06/04 20:15:23;;;;;;;3.50;1.60;;;;;;;20.99;49.28;98628.60;;;;-55
2020/06/04 20:17:41;;;;;;;1.73;1.63;;;;;;;20.99;49.17;98638.09;;;;-58
2020/06/04 20:23:50;;;;;;;2.48;1.72;;;;;;;21.00;49.38;98644.65;;;;-51
2020/06/04 20:27:21;;;;;;;7.70;1.95;;;;;;;21.01;49.37;98650.10;;;;-52
2020/06/04 20:29:41;;;;;;;2.59;1.70;;;;;;;21.02;49.53;98656.75;;;;-54
2020/06/04 20:32:45;;;;;;;3.03;1.77;;;;;;;21.02;49.47;98664.56;;;;-50
2020/06/04 20:35:52;;;;;;;3.65;1.69;;;;;;;21.03;49.48;98663.56;;;;-51
2020/06/04 20:42:52;;;;;;;1.79;1.67;;;;;;;21.05;49.55;98657.52;;;;-56
2020/06/04 20:45:43;;;;;;;4.91;1.83;;;;;;;21.05;49.60;98655.60;;;;-52
2020/06/04 20:53:38;;;;;;;4.66;1.95;;;;;;;21.07;49.58;98660.73;;;;-57
2020/06/04 20:57:26;;;;;;;2.84;1.73;;;;;;;21.07;49.52;98673.24;;;;-56
2020/06/04 21:03:39;;;;;;;4.87;1.85;;;;;;;21.09;49.33;98675.92;;;;-52
2020/06/04 21:08:04;;;;;;;2.48;1.83;;;;;;;21.08;49.50;98679.63;;;;-57
2020/06/04 21:13:39;;;;;;;2.39;1.81;;;;;;;21.08;49.28;98684.48;;;;-53
2020/06/04 21:17:15;;;;;;;3.71;1.83;;;;;;;21.07;49.36;98692.02;;;;-53
2020/06/04 21:24:53;;;;;;;3.58;1.95;;;;;;;21.02;49.14;98703.58;;;;-53
2020/06/04 21:27:37;;;;;;;2.03;1.82;;;;;;;21.00;49.01;98707.66;;;;-53
2020/06/04 21:32:01;;;;;;;4.01;1.85;;;;;;;20.98;48.98;98703.96;;;;-53
2020/06/04 21:34:49;;;;;;;3.31;1.73;;;;;;;20.98;49.01;98710.92;;;;-53
2020/06/04 21:40:39;;;;;;;3.89;1.90;;;;;;;20.96;48.97;98717.62;;;;-53
2020/06/04 21:44:01;;;;;;;2.17;1.97;;;;;;;20.95;48.97;98720.45;;;;-53
2020/06/04 21:46:40;;;;;;;3.87;1.97;;;;;;;20.94;48.92;98723.06;;;;-53
2020/06/04 21:53:54;;;;;;;2.76;2.10;;;;;;;20.92;48.94;98725.11;;;;-53
2020/06/04 21:59:44;;;;;;;3.17;1.89;;;;;;;20.91;48.85;98726.78;;;;-53
2020/06/04 22:13:34;;;;;;;2.00;1.73;;;;;;;20.88;48.87;98735.47;;;;-53
2020/06/04 22:16:49;;;;;;;2.20;2.00;;;;;;;20.88;48.87;98741.34;;;;-53
2020/06/04 22:19:37;;;;;;;2.19;1.94;;;;;;;20.88;48.91;98747.23;;;;-54
2020/06/04 22:22:34;;;;;;;3.68;1.92;;;;;;;20.86;48.89;98753.41;;;;-53
2020/06/04 22:25:34;;;;;;;3.79;2.05;;;;;;;20.86;48.90;98752.91;;;;-53
2020/06/04 22:28:33;;;;;;;2.11;1.95;;;;;;;20.86;48.90;98753.41;;;;-53
2020/06/04 22:31:33;;;;;;;1.95;1.85;;;;;;;20.85;48.89;98750.89;;;;-53
2020/06/04 22:34:33;;;;;;;2.33;2.13;;;;;;;20.83;48.85;98750.11;;;;-53
2020/06/04 22:37:33;;;;;;;2.01;1.87;;;;;;;20.83;48.96;98754.58;;;;-54
2020/06/04 22:40:34;;;;;;;2.40;1.97;;;;;;;20.82;48.93;98751.04;;;;-53
2020/06/04 22:43:56;;;;;;;2.39;2.05;;;;;;;20.82;48.90;98751.09;;;;-53
2020/06/04 22:47:12;;;;;;;2.21;2.00;;;;;;;20.82;48.92;98750.42;;;;-53
2020/06/04 22:52:35;;;;;;;3.65;2.13;;;;;;;20.81;48.86;98756.78;;;;-54
2020/06/04 22:55:38;;;;;;;2.19;1.99;;;;;;;20.80;48.82;98755.05;;;;-53
2020/06/04 22:58:34;;;;;;;2.60;1.99;;;;;;;20.79;48.78;98756.17;;;;-53
2020/06/04 23:01:34;;;;;;;2.28;2.08;;;;;;;20.80;48.85;98758.58;;;;-53
2020/06/04 23:04:33;;;;;;;2.25;2.01;;;;;;;20.79;48.86;98754.49;;;;-53
2020/06/04 23:07:33;;;;;;;2.14;1.90;;;;;;;20.78;48.80;98754.62;;;;-53
2020/06/04 23:10:46;;;;;;;2.21;2.06;;;;;;;20.78;48.87;98755.83;;;;-53
2020/06/04 23:16:40;;;;;;;2.16;1.96;;;;;;;20.77;48.82;98765.02;;;;-53
2020/06/04 23:19:33;;;;;;;2.61;2.24;;;;;;;20.76;48.89;98764.27;;;;-53
2020/06/04 23:22:33;;;;;;;2.83;2.06;;;;;;;20.76;48.85;98774.06;;;;-53
2020/06/04 23:25:33;;;;;;;2.22;2.02;;;;;;;20.75;48.92;98778.94;;;;-53
2020/06/04 23:28:33;;;;;;;2.25;2.00;;;;;;;20.74;48.84;98777.83;;;;-53
2020/06/04 23:31:33;;;;;;;2.19;1.99;;;;;;;20.74;48.91;98779.33;;;;-53
2020/06/04 23:34:33;;;;;;;2.31;2.11;;;;;;;20.73;48.82;98773.37;;;;-53
2020/06/04 23:37:54;;;;;;;2.47;2.27;;;;;;;20.73;48.88;98779.92;;;;-53
2020/06/04 23:40:42;;;;;;;2.55;1.84;;;;;;;20.73;48.83;98774.45;;;;-53
2020/06/04 23:47:33;;;;;;;2.55;2.10;;;;;;;20.72;48.83;98789.13;;;;-53
2020/06/04 23:50:33;;;;;;;2.19;1.99;;;;;;;20.72;48.86;98789.38;;;;-53
2020/06/04 23:53:33;;;;;;;2.32;2.12;;;;;;;20.70;48.88;98787.77;;;;-53
2020/06/04 23:56:33;;;;;;;2.26;2.07;;;;;;;20.69;48.84;98780.20;;;;-53
2020/06/04 23:59:33;;;;;;;2.22;2.01;;;;;;;20.69;48.90;98775.50;;;;-53
